Time;durP1;ratioP1;P1;durP2;ratioP2;P2;SDS_P1;SDS_P2;PMS_P1;PMS_P2;Temp;Humidity;BMP_temperature;BMP_pressure;BME280_temperature;BME280_humidity;BME280_pressure;Samples;Min_cycle;Max_cycle;Signal;HPM_P1;HPM_P2
2023/07/28 00:02:23;;;;;;;7.13;1.95;;;18.00;99.90;;;;;;5034607;28;20407;-88
2023/07/28 00:04:49;;;;;;;6.88;2.20;;;18.00;99.90;;;;;;5034134;28;20120;-88
2023/07/28 00:07:15;;;;;;;5.03;1.88;;;18.00;99.90;;;;;;5017364;28;20079;-88
2023/07/28 00:09:41;;;;;;;5.00;2.67;;;18.00;99.90;;;;;;5018266;28;20067;-87
2023/07/28 00:12:07;;;;;;;3.88;1.88;;;18.00;99.90;;;;;;5033828;28;20503;-88
2023/07/28 00:14:32;;;;;;;4.15;2.00;;;18.00;99.90;;;;;;5033920;28;20047;-88
2023/07/28 00:16:58;;;;;;;5.38;2.25;;;18.00;99.90;;;;;;5034492;28;20547;-87
2023/07/28 00:19:24;;;;;;;4.40;2.35;;;18.00;99.90;;;;;;5034229;28;20037;-88
2023/07/28 00:21:51;;;;;;;2.92;1.35;;;18.00;99.90;;;;;;5017120;28;20040;-88
2023/07/28 00:24:17;;;;;;;10.48;2.25;;;18.00;99.90;;;;;;5034178;28;20040;-87
2023/07/28 00:26:44;;;;;;;4.85;2.10;;;18.10;99.90;;;;;;5016404;28;20214;-87
2023/07/28 00:29:09;;;;;;;5.30;1.80;;;18.00;99.90;;;;;;5034055;28;20041;-87
2023/07/28 00:31:35;;;;;;;5.93;2.20;;;18.10;99.90;;;;;;5051843;28;20039;-87
2023/07/28 00:34:02;;;;;;;4.38;1.40;;;18.00;99.90;;;;;;5051034;28;20512;-87
2023/07/28 00:36:28;;;;;;;4.40;1.52;;;18.10;99.90;;;;;;5033593;28;20044;-87
2023/07/28 00:38:54;;;;;;;5.25;1.95;;;18.00;99.90;;;;;;5033783;28;20033;-87
2023/07/28 00:41:20;;;;;;;4.07;1.60;;;18.10;99.90;;;;;;5033112;28;20060;-87
2023/07/28 00:43:45;;;;;;;3.65;1.77;;;18.10;99.90;;;;;;5033620;28;20037;-87
2023/07/28 00:46:13;;;;;;;4.38;2.22;;;18.00;99.90;;;;;;5033493;28;20044;-87
2023/07/28 00:48:40;;;;;;;3.17;1.48;;;18.10;99.90;;;;;;5050866;28;20099;-87
2023/07/28 00:51:06;;;;;;;3.88;1.67;;;18.10;99.90;;;;;;5033499;28;20049;-87
2023/07/28 00:53:32;;;;;;;3.58;1.80;;;18.10;99.90;;;;;;5017069;28;20048;-87
2023/07/28 00:55:58;;;;;;;4.18;1.92;;;18.10;99.90;;;;;;5033195;28;20040;-87
2023/07/28 00:58:24;;;;;;;6.65;2.08;;;18.10;99.90;;;;;;5051290;28;20047;-87
2023/07/28 01:00:50;;;;;;;7.55;2.15;;;18.00;99.90;;;;;;5032066;28;20095;-87
2023/07/28 01:03:18;;;;;;;6.72;2.50;;;18.10;99.90;;;;;;5016025;28;20045;-87
2023/07/28 01:06:05;;;;;;;6.80;2.25;;;18.10;99.90;;;;;;5033235;28;20041;-87
2023/07/28 01:08:37;;;;;;;6.43;1.77;;;18.10;99.90;;;;;;5016805;28;20039;-87
2023/07/28 01:11:03;;;;;;;6.03;1.98;;;18.00;99.90;;;;;;5033207;28;20072;-87
2023/07/28 01:13:29;;;;;;;5.47;2.08;;;18.00;99.90;;;;;;5033244;28;20102;-87
2023/07/28 01:15:54;;;;;;;2.65;1.77;;;18.10;99.90;;;;;;5016190;28;20400;-87
2023/07/28 01:18:20;;;;;;;5.13;2.20;;;18.10;99.90;;;;;;5033117;28;20037;-87
2023/07/28 01:20:47;;;;;;;3.88;1.92;;;18.00;99.90;;;;;;5032908;28;20041;-87
2023/07/28 01:23:47;;;;;;;6.88;2.22;;;18.10;99.90;;;;;;5036453;28;20106;-86
2023/07/28 01:26:16;;;;;;;8.77;2.25;;;18.10;99.90;;;;;;5022676;28;20053;-87
2023/07/28 01:28:43;;;;;;;6.78;2.05;;;18.00;99.90;;;;;;5067301;28;20454;-86
2023/07/28 01:31:09;;;;;;;3.05;1.70;;;18.10;99.90;;;;;;5069948;28;20048;-87
2023/07/28 01:33:35;;;;;;;4.55;2.08;;;18.10;99.90;;;;;;5070519;28;20067;-87
2023/07/28 01:36:01;;;;;;;6.40;1.85;;;18.10;99.90;;;;;;5052696;28;20053;-87
2023/07/28 01:38:27;;;;;;;5.25;1.80;;;18.10;99.90;;;;;;5052120;28;20072;-87
2023/07/28 01:40:53;;;;;;;6.53;2.05;;;18.00;99.90;;;;;;5070416;28;20036;-87
2023/07/28 01:43:19;;;;;;;4.10;1.83;;;18.00;99.90;;;;;;5052799;28;20504;-87
2023/07/28 01:45:45;;;;;;;5.93;1.65;;;18.10;99.90;;;;;;5035183;28;20467;-87
2023/07/28 01:48:10;;;;;;;8.60;2.40;;;18.00;99.90;;;;;;5035995;28;20124;-87
2023/07/28 01:50:37;;;;;;;2.75;1.60;;;18.10;99.90;;;;;;5052594;28;20041;-86
2023/07/28 01:53:05;;;;;;;3.90;1.70;;;18.10;99.90;;;;;;5052541;28;20075;-87
2023/07/28 01:55:31;;;;;;;3.47;1.52;;;18.00;99.90;;;;;;5036130;28;20055;-86
2023/07/28 01:57:59;;;;;;;5.07;1.48;;;18.00;99.90;;;;;;5069869;28;20893;-87
2023/07/28 02:00:25;;;;;;;3.10;1.40;;;18.10;99.90;;;;;;5070038;28;20036;-87
2023/07/28 02:02:52;;;;;;;2.50;1.42;;;18.10;99.90;;;;;;5070498;28;20426;-87
2023/07/28 02:05:18;;;;;;;1.77;0.95;;;18.10;99.90;;;;;;5051953;28;20037;-87
2023/07/28 02:07:43;;;;;;;2.80;1.65;;;18.10;99.90;;;;;;5052600;28;20384;-87
2023/07/28 02:10:12;;;;;;;3.13;1.67;;;18.00;99.90;;;;;;5052352;28;20492;-87
2023/07/28 02:12:39;;;;;;;2.58;1.23;;;18.00;99.90;;;;;;5069624;28;20067;-87
2023/07/28 02:15:06;;;;;;;3.42;1.42;;;18.00;99.90;;;;;;5070349;28;20427;-87
2023/07/28 02:17:32;;;;;;;3.58;1.25;;;18.00;99.90;;;;;;5035797;28;20492;-87
2023/07/28 02:19:58;;;;;;;1.83;1.05;;;18.00;99.90;;;;;;5069498;28;20029;-86
2023/07/28 02:22:24;;;;;;;2.60;1.67;;;18.10;99.90;;;;;;5042117;28;20081;-86
2023/07/28 02:24:49;;;;;;;2.25;1.27;;;18.00;99.90;;;;;;5050100;28;20516;-86
2023/07/28 02:27:15;;;;;;;5.13;1.77;;;18.00;99.90;;;;;;5049173;28;20186;-87
2023/07/28 02:29:42;;;;;;;3.30;1.50;;;18.00;99.90;;;;;;5032315;28;20044;-87
2023/07/28 02:32:08;;;;;;;3.08;1.85;;;18.00;99.90;;;;;;5032150;28;20055;-87
2023/07/28 02:34:34;;;;;;;7.35;2.65;;;18.00;99.90;;;;;;5032907;28;20049;-86
2023/07/28 02:37:00;;;;;;;2.50;1.35;;;18.00;99.90;;;;;;5054106;28;20044;-86
2023/07/28 02:39:26;;;;;;;6.80;1.58;;;18.00;99.90;;;;;;5036229;28;20045;-87
2023/07/28 02:41:51;;;;;;;9.23;2.20;;;18.00;99.90;;;;;;5067120;28;20033;-86
2023/07/28 02:44:17;;;;;;;2.25;1.40;;;18.00;99.90;;;;;;5055891;28;20080;-87
2023/07/28 02:46:43;;;;;;;3.78;1.65;;;18.00;99.90;;;;;;5073025;28;20037;-87
2023/07/28 02:49:08;;;;;;;4.47;1.23;;;18.00;99.90;;;;;;5039338;28;20048;-87
2023/07/28 02:51:34;;;;;;;6.75;1.80;;;18.00;99.90;;;;;;5055631;28;20396;-87
2023/07/28 02:54:00;;;;;;;1.73;1.20;;;18.00;99.90;;;;;;5054998;28;20075;-87
2023/07/28 02:56:26;;;;;;;3.53;1.48;;;18.00;99.90;;;;;;5073483;28;20563;-86
2023/07/28 02:58:55;;;;;;;7.32;1.35;;;18.00;99.90;;;;;;5038856;28;20033;-87
2023/07/28 03:01:21;;;;;;;4.25;1.48;;;18.00;99.90;;;;;;5038335;28;20082;-87
2023/07/28 03:03:47;;;;;;;3.28;1.58;;;18.00;99.90;;;;;;5039092;28;20044;-87
2023/07/28 03:06:13;;;;;;;3.70;1.45;;;18.00;99.90;;;;;;5055653;28;20606;-87
2023/07/28 03:08:39;;;;;;;2.63;1.63;;;18.00;99.90;;;;;;5072641;28;20043;-87
2023/07/28 03:11:04;;;;;;;3.78;1.80;;;18.00;99.90;;;;;;5073147;28;20041;-87
2023/07/28 03:13:30;;;;;;;4.30;1.42;;;18.00;99.90;;;;;;5038635;28;20043;-87
2023/07/28 03:15:56;;;;;;;4.40;1.77;;;18.00;99.90;;;;;;5054490;28;20036;-87
2023/07/28 03:18:21;;;;;;;3.63;1.70;;;18.00;99.90;;;;;;5030767;28;20052;-87
2023/07/28 03:20:47;;;;;;;5.55;1.90;;;18.00;99.90;;;;;;5051632;28;20041;-87
2023/07/28 03:23:14;;;;;;;3.15;1.55;;;18.00;99.90;;;;;;5034614;28;20045;-87
2023/07/28 03:25:39;;;;;;;5.50;1.58;;;18.00;99.90;;;;;;5052846;28;20064;-87
2023/07/28 03:28:05;;;;;;;6.10;2.00;;;18.00;99.90;;;;;;5018640;28;20044;-87
2023/07/28 03:30:31;;;;;;;4.30;2.42;;;18.00;99.90;;;;;;5034442;28;20045;-87
2023/07/28 03:32:57;;;;;;;2.90;1.70;;;18.00;99.90;;;;;;5052927;28;20045;-87
2023/07/28 03:35:23;;;;;;;5.45;1.50;;;18.00;99.90;;;;;;5052828;28;20048;-87
2023/07/28 03:37:48;;;;;;;1.42;0.80;;;18.00;99.90;;;;;;5063281;28;20036;-87
2023/07/28 03:40:14;;;;;;;4.30;1.60;;;18.00;99.90;;;;;;5054663;28;20076;-87
2023/07/28 03:42:40;;;;;;;4.82;1.90;;;18.00;99.90;;;;;;5034192;28;20063;-87
2023/07/28 03:45:06;;;;;;;3.15;1.33;;;18.00;99.90;;;;;;5034809;28;20396;-87
2023/07/28 03:47:32;;;;;;;2.67;1.83;;;18.00;99.90;;;;;;5034357;28;20045;-87
2023/07/28 03:49:58;;;;;;;3.17;1.50;;;18.10;99.90;;;;;;5034024;28;20183;-87
2023/07/28 03:52:23;;;;;;;3.42;1.60;;;18.00;99.90;;;;;;5016630;28;20080;-87
2023/07/28 03:54:49;;;;;;;2.70;1.33;;;18.10;99.90;;;;;;5033565;28;20437;-87
2023/07/28 03:57:15;;;;;;;3.15;1.45;;;18.10;99.90;;;;;;5051322;28;20093;-87
2023/07/28 03:59:41;;;;;;;4.07;1.17;;;18.10;99.90;;;;;;5027001;28;20036;-87
2023/07/28 04:02:06;;;;;;;2.88;1.55;;;18.00;99.90;;;;;;5054143;28;20087;-87
2023/07/28 04:04:32;;;;;;;2.35;1.30;;;18.10;99.90;;;;;;5071782;28;20123;-87
2023/07/28 04:06:58;;;;;;;5.82;1.70;;;18.00;99.90;;;;;;5054380;28;20048;-87
2023/07/28 04:09:24;;;;;;;3.47;1.48;;;18.00;99.90;;;;;;5054175;28;20040;-87
2023/07/28 04:11:50;;;;;;;2.58;1.08;;;18.00;99.90;;;;;;5036473;28;20044;-87
2023/07/28 04:14:16;;;;;;;2.83;1.50;;;18.00;99.90;;;;;;5048791;28;20063;-87
2023/07/28 04:16:41;;;;;;;2.50;1.00;;;18.00;99.90;;;;;;5052114;28;20126;-87
2023/07/28 04:19:07;;;;;;;3.08;1.50;;;18.00;99.90;;;;;;5051836;28;20040;-87
2023/07/28 04:21:33;;;;;;;2.53;1.52;;;18.00;99.90;;;;;;5052159;28;20480;-86
2023/07/28 04:23:59;;;;;;;4.60;1.63;;;18.00;99.90;;;;;;5033901;28;20542;-87
2023/07/28 04:26:25;;;;;;;5.00;1.33;;;18.00;99.90;;;;;;5033403;28;20138;-86
2023/07/28 04:28:51;;;;;;;3.17;1.73;;;18.00;99.90;;;;;;5051885;28;20041;-88
2023/07/28 04:31:18;;;;;;;3.67;1.60;;;18.00;99.90;;;;;;5017447;28;20044;-87
2023/07/28 04:33:44;;;;;;;5.57;1.50;;;18.00;99.90;;;;;;5041778;28;20137;-87
2023/07/28 04:36:09;;;;;;;4.10;1.65;;;18.00;99.90;;;;;;5053996;28;20072;-88
2023/07/28 04:38:35;;;;;;;3.60;1.85;;;18.10;99.90;;;;;;5053865;28;20054;-87
2023/07/28 04:41:01;;;;;;;4.30;1.88;;;18.10;99.90;;;;;;5057733;28;20048;-88
2023/07/28 04:43:27;;;;;;;3.38;1.05;;;18.10;99.90;;;;;;5053815;28;20050;-87
2023/07/28 04:45:53;;;;;;;3.92;1.20;;;18.10;99.90;;;;;;5053093;28;20113;-88
2023/07/28 04:48:19;;;;;;;3.72;1.45;;;18.10;99.90;;;;;;5053716;28;20044;-88
2023/07/28 04:50:45;;;;;;;3.33;1.70;;;18.10;99.90;;;;;;5053669;28;20048;-87
2023/07/28 04:53:11;;;;;;;5.25;1.50;;;18.10;99.90;;;;;;5052609;28;20040;-86
2023/07/28 04:55:36;;;;;;;2.50;1.30;;;18.10;99.90;;;;;;5071297;28;20114;-87
2023/07/28 04:58:02;;;;;;;3.15;1.15;;;18.10;99.90;;;;;;5069107;28;20068;-87
2023/07/28 05:00:28;;;;;;;5.32;1.85;;;18.10;99.90;;;;;;5052571;28;20052;-87
2023/07/28 05:02:54;;;;;;;2.35;1.38;;;18.10;99.90;;;;;;5071051;28;20049;-87
2023/07/28 05:05:20;;;;;;;6.05;2.25;;;18.10;99.90;;;;;;5053465;28;20377;-87
2023/07/28 05:07:45;;;;;;;5.38;1.40;;;18.20;99.90;;;;;;5035723;28;20476;-87
2023/07/28 05:10:12;;;;;;;2.40;1.25;;;18.20;99.90;;;;;;5050833;28;20075;-87
2023/07/28 05:12:38;;;;;;;6.10;1.48;;;18.10;99.90;;;;;;5033112;28;20037;-88
2023/07/28 05:15:05;;;;;;;3.78;1.52;;;18.20;99.90;;;;;;5032627;28;20400;-86
2023/07/28 05:17:31;;;;;;;4.47;1.33;;;18.20;99.90;;;;;;5051050;28;20037;-87
2023/07/28 05:19:57;;;;;;;3.53;1.50;;;18.20;99.90;;;;;;5033002;28;20037;-87
2023/07/28 05:22:22;;;;;;;2.95;1.60;;;18.20;99.90;;;;;;5032425;28;20040;-87
2023/07/28 05:24:48;;;;;;;4.25;1.55;;;18.20;99.90;;;;;;5050964;28;20674;-86
2023/07/28 05:27:14;;;;;;;2.92;1.30;;;18.30;99.90;;;;;;5032770;28;20056;-86
2023/07/28 05:29:40;;;;;;;2.55;1.45;;;18.30;99.90;;;;;;5056095;28;20036;-88
2023/07/28 05:32:06;;;;;;;2.25;1.25;;;18.30;99.90;;;;;;5052790;28;20364;-87
2023/07/28 05:34:32;;;;;;;2.90;1.25;;;18.30;99.90;;;;;;5070378;28;20059;-87
2023/07/28 05:36:58;;;;;;;2.70;1.38;;;18.40;99.90;;;;;;5052151;28;20033;-87
2023/07/28 05:39:23;;;;;;;2.33;1.52;;;18.30;99.90;;;;;;5053376;28;20048;-91
2023/07/28 05:41:49;;;;;;;6.60;1.73;;;18.40;99.90;;;;;;5053600;28;20502;-92
2023/07/28 05:44:18;;;;;;;2.63;1.73;;;18.40;99.90;;;;;;5070777;28;20545;-85
2023/07/28 05:46:45;;;;;;;5.53;2.25;;;18.40;99.90;;;;;;5071318;28;20050;-87
2023/07/28 05:49:11;;;;;;;5.10;1.50;;;18.40;99.90;;;;;;5052392;28;20083;-88
2023/07/28 05:51:37;;;;;;;3.13;1.40;;;18.40;99.90;;;;;;5052251;28;20045;-85
2023/07/28 05:54:02;;;;;;;2.80;1.40;;;18.40;99.90;;;;;;5052871;28;20055;-85
2023/07/28 05:56:28;;;;;;;5.50;1.52;;;18.40;99.90;;;;;;5070342;28;20036;-84
2023/07/28 05:58:55;;;;;;;3.15;1.67;;;18.40;99.90;;;;;;5054134;28;20044;-86
2023/07/28 06:01:21;;;;;;;3.25;1.83;;;18.40;99.90;;;;;;5070263;28;20047;-85
2023/07/28 06:03:46;;;;;;;6.80;1.90;;;18.40;99.90;;;;;;5051861;28;20123;-85
2023/07/28 06:06:12;;;;;;;5.88;2.40;;;18.40;99.90;;;;;;5070066;28;20037;-87
2023/07/28 06:08:38;;;;;;;5.72;2.25;;;18.40;99.90;;;;;;5052271;28;20047;-88
2023/07/28 06:11:05;;;;;;;3.50;1.30;;;18.50;99.90;;;;;;5055784;28;20040;-87
2023/07/28 06:13:31;;;;;;;3.05;1.70;;;18.50;99.90;;;;;;5074494;28;20045;-86
2023/07/28 06:15:58;;;;;;;4.53;1.90;;;18.50;99.90;;;;;;5056473;28;20036;-86
2023/07/28 06:18:24;;;;;;;5.70;1.40;;;18.50;99.90;;;;;;5073669;28;20050;-86
2023/07/28 06:20:50;;;;;;;4.32;2.05;;;18.50;99.90;;;;;;5074054;28;20037;-86
2023/07/28 06:23:16;;;;;;;5.20;1.98;;;18.60;99.90;;;;;;5056363;28;20047;-85
2023/07/28 06:25:45;;;;;;;3.47;2.10;;;18.60;99.90;;;;;;5055376;28;20053;-86
2023/07/28 06:28:12;;;;;;;3.40;1.73;;;18.60;99.90;;;;;;5074099;28;20039;-86
2023/07/28 06:30:38;;;;;;;4.55;1.98;;;18.60;99.90;;;;;;5055441;28;20066;-87
2023/07/28 06:33:06;;;;;;;5.25;2.47;;;18.60;99.90;;;;;;5056048;28;20055;-86
2023/07/28 06:35:33;;;;;;;6.45;2.35;;;18.60;99.90;;;;;;5055537;28;20060;-86
2023/07/28 06:38:00;;;;;;;3.45;1.75;;;18.60;99.90;;;;;;5076784;28;20037;-86
2023/07/28 06:40:26;;;;;;;4.97;1.77;;;18.60;99.90;;;;;;5062293;28;20036;-85
2023/07/28 06:42:51;;;;;;;6.05;1.88;;;18.60;99.90;;;;;;5055745;28;20071;-87
2023/07/28 06:45:17;;;;;;;7.07;2.05;;;18.60;99.90;;;;;;5055082;28;20098;-87
2023/07/28 06:47:43;;;;;;;12.90;2.58;;;18.70;99.90;;;;;;5055648;28;20040;-87
2023/07/28 06:50:11;;;;;;;3.10;1.98;;;18.70;99.90;;;;;;5073941;28;20074;-86
2023/07/28 06:52:37;;;;;;;5.35;1.92;;;18.70;99.90;;;;;;5072774;28;20166;-87
2023/07/28 06:55:03;;;;;;;4.85;1.63;;;18.70;99.90;;;;;;5073705;28;20032;-87
2023/07/28 06:57:30;;;;;;;5.63;1.92;;;18.80;99.90;;;;;;5039143;28;20036;-87
2023/07/28 06:59:56;;;;;;;5.80;1.67;;;18.80;99.90;;;;;;5072824;28;20116;-88
2023/07/28 07:02:22;;;;;;;4.50;1.73;;;18.90;99.90;;;;;;5056031;28;20121;-87
2023/07/28 07:04:48;;;;;;;4.50;1.85;;;19.00;99.90;;;;;;5036059;28;20040;-88
2023/07/28 07:07:14;;;;;;;5.05;1.83;;;19.00;99.90;;;;;;5035297;28;20041;-89
2023/07/28 07:09:40;;;;;;;3.90;1.73;;;19.00;99.90;;;;;;5050141;28;20053;-91
2023/07/28 07:12:09;;;;;;;4.82;1.88;;;19.10;99.90;;;;;;5019994;28;20041;-90
2023/07/28 07:14:35;;;;;;;4.03;1.92;;;19.10;99.90;;;;;;5042448;28;20043;-89
2023/07/28 07:17:01;;;;;;;3.88;1.92;;;19.20;99.90;;;;;;5073253;28;20154;-88
2023/07/28 07:19:30;;;;;;;4.88;2.17;;;19.30;99.90;;;;;;5055125;28;20536;-88
2023/07/28 07:21:56;;;;;;;3.70;1.73;;;19.60;99.90;;;;;;5036696;28;20036;-88
2023/07/28 07:24:22;;;;;;;5.65;2.13;;;19.90;99.90;;;;;;5055180;28;20046;-88
2023/07/28 07:26:47;;;;;;;2.92;1.38;;;19.90;99.90;;;;;;5054191;28;20068;-88
2023/07/28 07:29:13;;;;;;;2.60;1.75;;;19.90;99.90;;;;;;5073126;28;20084;-88
2023/07/28 07:31:40;;;;;;;3.78;1.70;;;19.90;99.90;;;;;;5055463;28;20147;-90
2023/07/28 07:34:06;;;;;;;1.90;1.35;;;20.00;99.90;;;;;;5071267;28;20032;-89
2023/07/28 07:36:32;;;;;;;3.83;1.77;;;20.10;99.90;;;;;;5038720;28;20397;-89
2023/07/28 07:38:58;;;;;;;2.67;1.50;;;20.20;99.90;;;;;;5055014;28;20056;-88
2023/07/28 07:41:24;;;;;;;7.18;1.95;;;20.20;99.90;;;;;;5054374;28;20044;-89
2023/07/28 07:43:52;;;;;;;2.50;1.50;;;20.30;99.90;;;;;;5038849;28;20037;-88
2023/07/28 07:46:19;;;;;;;3.03;1.60;;;20.50;99.90;;;;;;5055301;28;20037;-89
2023/07/28 07:48:45;;;;;;;3.17;1.58;;;20.60;99.90;;;;;;5054169;28;20041;-89
2023/07/28 07:51:11;;;;;;;4.82;1.48;;;20.70;99.90;;;;;;5038189;28;20048;-89
2023/07/28 07:53:37;;;;;;;4.13;1.55;;;20.70;99.90;;;;;;5054977;28;20074;-88
2023/07/28 07:56:07;;;;;;;3.97;1.42;;;20.80;99.90;;;;;;5054253;28;20286;-88
2023/07/28 07:58:33;;;;;;;3.80;1.52;;;20.90;99.90;;;;;;5076402;28;20130;-88
2023/07/28 08:00:59;;;;;;;2.58;1.25;;;21.20;99.90;;;;;;5072338;28;20036;-87
2023/07/28 08:03:26;;;;;;;9.55;1.80;;;21.30;99.90;;;;;;5053810;28;20043;-87
2023/07/28 08:05:52;;;;;;;4.45;1.80;;;21.30;99.90;;;;;;5054228;28;20045;-88
2023/07/28 08:08:19;;;;;;;3.50;1.70;;;21.30;99.90;;;;;;5053138;28;20040;-88
2023/07/28 08:10:49;;;;;;;2.95;1.42;;;21.20;99.90;;;;;;5034730;28;20072;-87
2023/07/28 08:13:15;;;;;;;6.15;1.63;;;21.00;99.90;;;;;;5034066;28;20160;-88
2023/07/28 08:15:45;;;;;;;3.50;1.90;;;21.00;99.90;;;;;;5034947;28;20534;-88
2023/07/28 08:18:14;;;;;;;3.75;1.95;;;20.90;99.90;;;;;;5055985;28;20036;-89
2023/07/28 08:20:40;;;;;;;3.35;1.85;;;20.80;99.90;;;;;;5072035;28;20032;-88
2023/07/28 08:23:05;;;;;;;3.35;1.70;;;20.70;99.90;;;;;;5053513;28;20035;-88
2023/07/28 08:25:31;;;;;;;5.03;2.03;;;20.70;99.90;;;;;;5067450;28;20444;-87
2023/07/28 08:27:57;;;;;;;2.83;2.03;;;20.70;99.90;;;;;;5040597;28;20052;-91
2023/07/28 08:30:23;;;;;;;3.10;1.50;;;20.70;99.90;;;;;;5037792;28;20072;-87
2023/07/28 08:32:49;;;;;;;2.88;1.70;;;20.70;99.90;;;;;;5017235;28;20045;-88
2023/07/28 08:35:15;;;;;;;3.88;1.30;;;20.80;99.90;;;;;;5017426;28;20076;-88
2023/07/28 08:37:40;;;;;;;4.07;1.73;;;21.00;99.90;;;;;;5013206;28;20079;-87
2023/07/28 08:40:07;;;;;;;4.60;1.55;;;21.10;99.90;;;;;;5013913;28;20048;-88
2023/07/28 08:42:38;;;;;;;5.63;1.95;;;21.10;99.90;;;;;;4997807;28;20041;-87
2023/07/28 08:45:05;;;;;;;3.42;1.73;;;21.10;99.90;;;;;;5013361;28;20053;-86
2023/07/28 08:47:32;;;;;;;2.92;1.38;;;21.20;99.90;;;;;;5014065;28;20068;-88
2023/07/28 08:49:58;;;;;;;4.60;2.03;;;21.30;99.90;;;;;;5031481;28;20454;-87
2023/07/28 08:52:24;;;;;;;3.42;1.83;;;21.20;99.90;;;;;;5035198;28;20037;-88
2023/07/28 08:54:50;;;;;;;3.30;1.75;;;21.40;99.90;;;;;;5051014;28;20041;-87
2023/07/28 08:57:16;;;;;;;5.50;2.78;;;21.60;99.90;;;;;;5013380;28;20485;-88
2023/07/28 08:59:47;;;;;;;3.72;1.80;;;21.90;99.90;;;;;;5022202;28;20041;-88
2023/07/28 09:02:18;;;;;;;2.58;1.48;;;22.10;99.90;;;;;;5033565;28;20045;-89
2023/07/28 09:04:46;;;;;;;2.95;2.00;;;22.40;99.90;;;;;;5032939;28;20063;-88
2023/07/28 09:07:12;;;;;;;3.35;2.08;;;22.70;99.90;;;;;;5033194;28;20040;-86
2023/07/28 09:09:38;;;;;;;3.40;1.75;;;23.00;99.90;;;;;;5033192;28;20507;-88
2023/07/28 09:12:04;;;;;;;4.40;1.80;;;23.20;99.90;;;;;;5032810;28;20045;-86
2023/07/28 09:14:30;;;;;;;4.90;1.65;;;23.30;99.90;;;;;;5029904;28;20046;-86
2023/07/28 09:17:07;;;;;;;3.55;1.83;;;23.20;99.90;;;;;;4997204;28;20046;-87
2023/07/28 09:19:33;;;;;;;5.20;2.58;;;23.00;99.90;;;;;;5030570;28;20072;-88
2023/07/28 09:22:01;;;;;;;3.97;1.73;;;22.70;99.90;;;;;;4996437;28;20555;-88
2023/07/28 09:24:33;;;;;;;4.35;2.38;;;22.70;99.90;;;;;;5012964;28;20037;-89
2023/07/28 09:27:00;;;;;;;4.40;2.05;;;22.80;99.90;;;;;;5029023;28;20041;-89
2023/07/28 09:29:30;;;;;;;6.50;2.22;;;23.20;99.90;;;;;;5016733;28;20053;-88
2023/07/28 09:32:08;;;;;;;5.57;2.63;;;23.40;99.90;;;;;;5032637;28;20076;-88
2023/07/28 09:34:34;;;;;;;3.25;1.60;;;23.50;99.90;;;;;;5059247;28;20041;-88
2023/07/28 09:37:00;;;;;;;4.18;2.03;;;23.50;99.90;;;;;;5052770;28;20128;-88
2023/07/28 09:39:27;;;;;;;3.25;1.67;;;23.50;99.90;;;;;;5036065;28;20041;-89
2023/07/28 09:41:58;;;;;;;2.90;1.63;;;23.50;99.90;;;;;;5051872;28;20042;-88
2023/07/28 09:44:24;;;;;;;3.53;1.98;;;23.50;99.90;;;;;;5052060;28;20407;-88
2023/07/28 09:46:55;;;;;;;5.57;2.05;;;23.70;99.90;;;;;;5051964;28;20051;-88
2023/07/28 09:49:28;;;;;;;3.78;1.90;;;24.00;99.90;;;;;;5052409;28;20098;-89
2023/07/28 09:51:57;;;;;;;4.43;2.13;;;24.20;99.90;;;;;;5070236;28;20040;-88
2023/07/28 09:54:29;;;;;;;3.03;1.95;;;24.20;99.90;;;;;;5051696;28;20037;-89
2023/07/28 09:56:59;;;;;;;4.18;1.92;;;24.00;99.90;;;;;;5035939;28;20041;-88
2023/07/28 09:59:46;;;;;;;3.72;1.90;;;24.10;99.90;;;;;;5051947;28;20045;-86
2023/07/28 10:02:12;;;;;;;5.82;2.53;;;24.30;99.90;;;;;;5051709;28;20363;-87
2023/07/28 10:04:39;;;;;;;4.10;2.00;;;24.30;99.90;;;;;;5050857;28;20123;-85
2023/07/28 10:07:07;;;;;;;5.65;2.08;;;24.20;99.90;;;;;;5050288;28;20044;-85
2023/07/28 10:09:33;;;;;;;6.18;2.55;;;24.20;99.90;;;;;;5031972;28;20404;-87
2023/07/28 10:12:01;;;;;;;3.92;1.88;;;24.10;99.90;;;;;;5060380;28;20123;-87
2023/07/28 10:14:34;;;;;;;4.55;1.80;;;24.10;99.90;;;;;;5052135;28;20500;-87
2023/07/28 10:17:04;;;;;;;2.53;1.48;;;23.90;99.90;;;;;;5051866;28;20365;-87
2023/07/28 10:19:34;;;;;;;2.85;2.08;;;23.90;99.90;;;;;;5051121;28;20038;-86
2023/07/28 10:22:08;;;;;;;3.85;1.65;;;23.70;99.90;;;;;;5069227;28;20045;-87
2023/07/28 10:24:54;;;;;;;2.38;1.60;;;23.60;99.90;;;;;;5070058;28;20087;-87
2023/07/28 10:27:31;;;;;;;3.53;1.52;;;23.50;99.90;;;;;;5051882;28;20048;-86
2023/07/28 10:30:01;;;;;;;6.82;2.25;;;23.50;99.90;;;;;;5068879;28;20048;-87
2023/07/28 10:32:40;;;;;;;4.45;2.47;;;23.60;99.90;;;;;;5070170;28;20037;-86
2023/07/28 10:35:31;;;;;;;4.70;2.50;;;23.70;99.90;;;;;;5051745;28;20044;-86
2023/07/28 10:37:58;;;;;;;4.20;2.50;;;23.60;99.90;;;;;;5060681;28;20045;-86
2023/07/28 10:40:29;;;;;;;4.43;2.50;;;23.50;99.90;;;;;;5052014;28;20045;-86
2023/07/28 10:42:56;;;;;;;6.65;3.45;;;23.30;99.90;;;;;;5051306;28;20411;-86
2023/07/28 10:45:23;;;;;;;3.70;2.50;;;23.30;99.90;;;;;;5050168;28;20040;-86
2023/07/28 10:47:51;;;;;;;3.40;2.22;;;23.40;99.90;;;;;;5035440;28;20151;-86
2023/07/28 10:50:18;;;;;;;5.20;2.10;;;23.60;99.90;;;;;;5046803;28;20083;-86
2023/07/28 10:52:45;;;;;;;5.82;2.53;;;24.00;99.90;;;;;;5032415;28;20045;-87
2023/07/28 10:55:17;;;;;;;5.35;2.72;;;24.40;99.90;;;;;;5033064;28;20120;-87
2023/07/28 10:57:44;;;;;;;6.40;2.25;;;24.50;99.90;;;;;;5034400;28;20052;-87
2023/07/28 11:00:14;;;;;;;3.47;2.25;;;24.20;99.90;;;;;;5043935;28;20519;-86
2023/07/28 11:02:47;;;;;;;7.03;2.55;;;24.10;99.90;;;;;;5035517;28;20076;-89
2023/07/28 11:05:19;;;;;;;3.95;2.05;;;23.90;99.90;;;;;;5051648;28;20094;-87
2023/07/28 11:07:45;;;;;;;4.75;2.13;;;23.70;99.90;;;;;;5035773;28;20111;-87
2023/07/28 11:10:12;;;;;;;7.07;2.83;;;23.70;99.90;;;;;;5072909;28;20087;-88
2023/07/28 11:12:44;;;;;;;5.63;2.72;;;23.90;99.90;;;;;;5054438;28;20128;-87
2023/07/28 11:15:11;;;;;;;4.93;2.42;;;24.00;99.90;;;;;;5055216;28;20044;-88
2023/07/28 11:17:44;;;;;;;6.75;2.30;;;24.20;99.90;;;;;;5054633;28;20425;-87
2023/07/28 11:20:24;;;;;;;5.22;2.75;;;24.60;99.90;;;;;;5055000;28;20044;-87
2023/07/28 11:22:55;;;;;;;3.17;2.00;;;24.70;99.90;;;;;;5054994;28;20106;-87
2023/07/28 11:25:22;;;;;;;6.30;3.40;;;24.50;99.90;;;;;;5051666;28;20036;-89
2023/07/28 11:27:48;;;;;;;4.00;2.58;;;24.10;99.90;;;;;;5052904;28;20052;-88
2023/07/28 11:30:15;;;;;;;5.28;3.15;;;24.00;99.90;;;;;;5034852;28;20041;-88
2023/07/28 11:32:43;;;;;;;8.88;3.08;;;24.00;99.90;;;;;;5017794;28;20040;-88
2023/07/28 11:35:11;;;;;;;4.53;2.30;;;23.90;99.90;;;;;;5035236;28;20048;-87
2023/07/28 11:37:39;;;;;;;4.15;2.20;;;23.90;99.90;;;;;;5035188;28;20162;-88
2023/07/28 11:40:06;;;;;;;3.92;2.13;;;23.80;99.90;;;;;;5034318;28;20476;-89
2023/07/28 11:42:37;;;;;;;5.68;1.92;;;23.80;99.90;;;;;;5034095;28;20064;-88
2023/07/28 11:45:04;;;;;;;4.43;1.83;;;23.80;99.90;;;;;;5033987;28;20041;-88
2023/07/28 11:47:30;;;;;;;4.03;1.50;;;23.90;99.90;;;;;;5033806;28;20041;-88
2023/07/28 11:50:03;;;;;;;4.10;2.13;;;24.10;99.90;;;;;;5034456;28;20045;-88
2023/07/28 11:52:34;;;;;;;3.75;1.98;;;24.50;99.90;;;;;;5018479;28;20495;-87
2023/07/28 11:55:01;;;;;;;3.38;2.08;;;24.70;99.90;;;;;;5033351;28;20484;-89
2023/07/28 11:57:30;;;;;;;3.90;2.03;;;24.60;99.90;;;;;;5033950;28;20377;-87
2023/07/28 11:59:57;;;;;;;4.57;1.95;;;24.40;99.90;;;;;;5033283;28;20041;-88
2023/07/28 12:02:31;;;;;;;4.28;2.67;;;24.20;99.90;;;;;;5034865;28;20051;-89
2023/07/28 12:04:57;;;;;;;6.50;2.38;;;24.00;99.90;;;;;;5031888;28;20048;-88
2023/07/28 12:07:33;;;;;;;5.22;1.50;;;23.80;99.90;;;;;;5028914;28;20033;-88
2023/07/28 12:10:06;;;;;;;5.63;2.00;;;23.70;99.90;;;;;;5034732;28;20146;-87
2023/07/28 12:12:39;;;;;;;4.68;2.08;;;23.60;99.90;;;;;;5052056;28;20041;-87
2023/07/28 12:15:28;;;;;;;3.50;2.05;;;23.90;99.90;;;;;;5051417;28;20077;-88
2023/07/28 12:18:13;;;;;;;4.18;1.67;;;24.10;99.90;;;;;;5034321;28;20049;-89
2023/07/28 12:20:47;;;;;;;4.03;1.60;;;24.30;99.90;;;;;;5046954;28;20048;-89
2023/07/28 12:23:20;;;;;;;2.97;1.48;;;24.50;99.90;;;;;;5025558;28;20041;-89
2023/07/28 12:25:46;;;;;;;3.47;1.88;;;24.50;99.90;;;;;;5039798;28;20055;-88
2023/07/28 12:28:13;;;;;;;4.13;1.95;;;24.50;99.90;;;;;;5071260;28;20056;-88
2023/07/28 12:30:38;;;;;;;5.30;2.38;;;24.40;99.90;;;;;;5054094;28;20436;-89
2023/07/28 12:33:05;;;;;;;3.80;1.80;;;24.10;99.90;;;;;;5053706;28;20080;-88
2023/07/28 12:35:34;;;;;;;4.00;2.45;;;24.00;99.90;;;;;;5071035;28;20040;-88
2023/07/28 12:38:07;;;;;;;4.78;1.83;;;24.00;99.90;;;;;;5053723;28;20037;-89
2023/07/28 12:40:34;;;;;;;3.92;2.13;;;24.20;99.90;;;;;;5071421;28;20041;-88
2023/07/28 12:43:02;;;;;;;5.70;2.97;;;24.30;99.90;;;;;;5043305;28;20094;-89
2023/07/28 12:45:28;;;;;;;5.72;2.63;;;24.20;99.90;;;;;;5017319;28;20099;-88
2023/07/28 12:47:55;;;;;;;3.85;2.25;;;24.30;99.90;;;;;;5051559;28;20045;-88
2023/07/28 12:50:22;;;;;;;7.75;2.42;;;24.30;99.90;;;;;;5032907;28;20080;-88